Liberta — V2CM3 — position and weather

sailwx.info

Track history (hours):
 
Tides and Currents Weather Stations Pressure Air Temp Water Temp Dewpoint Dewpoint Depression Visibility Wind Speed Wind Dir Waves Ship Positions

Liberta

Last reported at 2016-Dec-02 08:10 UTC. Time now 2016-Dec-07 08:37 UTC.
Position N 54°48' E 015°48'.

Length 138 m; draft 5.7 m.

Type: Cargo ship. MMSI: 305043000.

Date/timePositionNaut miles runAvg speedWind from/ knotsBaromVisibWave heightAir tempDewpointWater temp
2016-Dec-02 08:10N 54°48' E 015°48'79 7.9
2016-Dec-01 22:15N 53°46' E 014°24'7 9.6
2016-Dec-01 21:33N 53°41' E 014°31'10 9.5
2016-Dec-01 20:33N 53°32' E 014°38'8 7.6
2016-Dec-01 19:33N 53°25' E 014°37'0 0.4
2016-Dec-01 18:30N 53°24' E 014°36'0 0.0
2016-Dec-01 17:33N 53°24' E 014°36'0 0.0
2016-Dec-01 16:33N 53°24' E 014°36'0 0.0
2016-Dec-01 15:33N 53°24' E 014°36'0 0.0
2016-Dec-01 14:33N 53°24' E 014°36'0 0.0
2016-Dec-01 13:33N 53°24' E 014°36'0 0.0
2016-Dec-01 12:33N 53°24' E 014°36'0 0.0
2016-Dec-01 11:33N 53°24' E 014°36'0 0.0
2016-Dec-01 10:33N 53°24' E 014°36'0 0.0
2016-Dec-01 09:33N 53°24' E 014°36'0 0.0
2016-Dec-01 08:33N 53°24' E 014°36'0 0.0
2016-Dec-01 07:33N 53°24' E 014°36'0 0.0
2016-Dec-01 06:33N 53°24' E 014°36'0 0.0
2016-Dec-01 05:33N 53°24' E 014°36'0 0.0
2016-Dec-01 04:33N 53°24' E 014°36'0 0.0
2016-Dec-01 03:33N 53°24' E 014°36'0 0.0
2016-Dec-01 02:33N 53°24' E 014°36'0 0.0
2016-Dec-01 01:30N 53°24' E 014°36'0 0.0
2016-Dec-01 00:33N 53°24' E 014°36'0 0.0
2016-Nov-30 23:33N 53°24' E 014°36'0 0.0
2016-Nov-30 22:30N 53°24' E 014°36'0 0.0
2016-Nov-30 21:33N 53°24' E 014°36'0 0.0
2016-Nov-30 20:33N 53°24' E 014°36'0 0.0
2016-Nov-30 19:33N 53°24' E 014°36'0 0.0
2016-Nov-30 18:33N 53°24' E 014°36'0 0.0
2016-Nov-30 17:33N 53°24' E 014°36'0 0.0
2016-Nov-30 16:33N 53°24' E 014°36'0 0.0
2016-Nov-30 15:33N 53°24' E 014°36'0 0.0
2016-Nov-30 14:33N 53°24' E 014°36'0 0.0
2016-Nov-30 13:33N 53°24' E 014°36'0 0.0
2016-Nov-30 12:33N 53°24' E 014°36'0 0.0
2016-Nov-30 11:33N 53°24' E 014°36'0 0.0
2016-Nov-30 10:33N 53°24' E 014°36'0 0.0
2016-Nov-30 09:33N 53°24' E 014°36'0 0.0
2016-Nov-30 08:33N 53°24' E 014°36'0 0.0
2016-Nov-30 07:33N 53°24' E 014°36'0 0.0
2016-Nov-30 06:27N 53°24' E 014°36'0 0.0
2016-Nov-30 05:33N 53°24' E 014°36'0 0.0
2016-Nov-30 04:33N 53°24' E 014°36'0 0.0
2016-Nov-30 03:33N 53°24' E 014°36'0 0.0
2016-Nov-30 02:33N 53°24' E 014°36'0 0.0
2016-Nov-30 01:33N 53°24' E 014°36'0 0.0
2016-Nov-30 00:33N 53°24' E 014°36'0 0.0
2016-Nov-29 23:33N 53°24' E 014°36'0 0.0
2016-Nov-29 22:30N 53°24' E 014°36'0 0.0
2016-Nov-29 21:33N 53°24' E 014°36'0 0.0
2016-Nov-29 20:33N 53°24' E 014°36'0 0.0
2016-Nov-29 19:33N 53°24' E 014°36'0 0.0
2016-Nov-29 18:33N 53°24' E 014°36'0 0.0
2016-Nov-29 17:33N 53°24' E 014°36'0 0.0
2016-Nov-29 16:33N 53°24' E 014°36'0 0.0
2016-Nov-29 15:33N 53°24' E 014°36'0 0.0
2016-Nov-29 14:33N 53°24' E 014°36'0 0.0
2016-Nov-29 13:33N 53°24' E 014°36'0 0.0
2016-Nov-29 12:33N 53°24' E 014°36'0 0.0
2016-Nov-29 11:33N 53°24' E 014°36'0 0.0
2016-Nov-29 10:33N 53°24' E 014°36'0 0.0
2016-Nov-29 09:33N 53°24' E 014°36'0 0.0
2016-Nov-29 08:33N 53°24' E 014°36'0 0.0
2016-Nov-29 07:33N 53°24' E 014°36'0 0.0
2016-Nov-29 06:33N 53°24' E 014°36'0 0.0
2016-Nov-29 05:33N 53°24' E 014°36'0 0.0
2016-Nov-29 04:33N 53°24' E 014°36'0 0.0
2016-Nov-29 03:33N 53°24' E 014°36'0 0.0
2016-Nov-29 02:30N 53°24' E 014°36'0 0.0
2016-Nov-29 01:33N 53°24' E 014°36'0 0.0
2016-Nov-29 00:33N 53°24' E 014°36'0 0.0
2016-Nov-28 23:33N 53°24' E 014°36'0 0.0
2016-Nov-28 22:33N 53°24' E 014°36'0 0.0
2016-Nov-28 21:33N 53°24' E 014°36'0 0.0
2016-Nov-28 20:33N 53°24' E 014°36'0 0.0
2016-Nov-28 19:33N 53°24' E 014°36'0 0.0
2016-Nov-28 18:33N 53°24' E 014°36'0 0.0
2016-Nov-28 17:33N 53°24' E 014°36'0 0.0
2016-Nov-28 16:33N 53°24' E 014°36'0 0.0
2016-Nov-28 15:33N 53°24' E 014°36'0 0.0
2016-Nov-28 14:33N 53°24' E 014°36'0 0.0
2016-Nov-28 13:33N 53°24' E 014°36'0 0.0
2016-Nov-28 12:33N 53°24' E 014°36'0 0.0
2016-Nov-28 11:30N 53°24' E 014°36'0 0.0
2016-Nov-28 10:33N 53°24' E 014°36'0 0.0
2016-Nov-28 09:33N 53°24' E 014°36'0 0.0
2016-Nov-28 08:33N 53°24' E 014°36'0 0.0
2016-Nov-28 07:33N 53°24' E 014°36'0 0.0
2016-Nov-28 06:33N 53°24' E 014°36'0 0.0
2016-Nov-28 05:33N 53°24' E 014°36'0 0.0
2016-Nov-28 04:30N 53°24' E 014°36'0 0.0
2016-Nov-28 03:33N 53°24' E 014°36'0 0.0
2016-Nov-28 02:33N 53°24' E 014°36'0 0.0
2016-Nov-28 01:33N 53°24' E 014°36'0 0.0
2016-Nov-28 00:33N 53°24' E 014°36'0 0.0
2016-Nov-27 23:33N 53°24' E 014°36'0 0.0
2016-Nov-27 22:33N 53°24' E 014°36'0 0.0
2016-Nov-27 21:33N 53°24' E 014°36'0 0.0
2016-Nov-27 20:33N 53°24' E 014°36'0 0.0
2016-Nov-27 19:33N 53°24' E 014°36'0 0.0
2016-Nov-27 18:33N 53°24' E 014°36'0 0.0
2016-Nov-27 17:33N 53°24' E 014°36'0 0.0
2016-Nov-27 16:33N 53°24' E 014°36'0 0.0
2016-Nov-27 15:33N 53°24' E 014°36'0 0.0
2016-Nov-27 14:33N 53°24' E 014°36'0 0.0
2016-Nov-27 13:33N 53°24' E 014°36'0 0.0
2016-Nov-27 12:33N 53°24' E 014°36'0 0.0
2016-Nov-27 11:33N 53°24' E 014°36'0 0.0
2016-Nov-27 10:33N 53°24' E 014°36'0 0.0
2016-Nov-27 09:33N 53°24' E 014°36'0 0.0
2016-Nov-27 08:33N 53°24' E 014°36'0 0.0
2016-Nov-27 07:33N 53°24' E 014°36'0 0.0
2016-Nov-27 06:33N 53°24' E 014°36'0 0.0
2016-Nov-27 05:33N 53°24' E 014°36'0 0.0
2016-Nov-27 04:33N 53°24' E 014°36'0 0.0
2016-Nov-27 03:33N 53°24' E 014°36'0 0.0
2016-Nov-27 02:33N 53°24' E 014°36'0 0.0
2016-Nov-27 01:33N 53°24' E 014°36'0 0.0
2016-Nov-27 00:33N 53°24' E 014°36'0 0.0
2016-Nov-26 23:33N 53°24' E 014°36'0 0.0
2016-Nov-26 22:33N 53°24' E 014°36'0 0.0
2016-Nov-26 21:33N 53°24' E 014°36'0 0.0
2016-Nov-26 20:33N 53°24' E 014°36'0 0.0
2016-Nov-26 19:33N 53°24' E 014°36'0 0.0
2016-Nov-26 18:33N 53°24' E 014°36'0 0.0
2016-Nov-26 17:33N 53°24' E 014°36'5 4.5
2016-Nov-26 16:33N 53°29' E 014°37'7 7.2
2016-Nov-26 15:32N 53°36' E 014°35'9 8.8
2016-Nov-26 14:33N 53°43' E 014°27'75 9.1
2016-Nov-26 06:20N 54°45' E 013°15'1011.8
2016-Nov-26 05:30N 54°44' E 012°58'1111.4
2016-Nov-26 04:34N 54°43' E 012°40'1111.5
2016-Nov-26 03:34N 54°37' E 012°23'1111.2
2016-Nov-26 02:34N 54°27' E 012°14'1111.0
2016-Nov-26 01:34N 54°25' E 011°55'1111.4
2016-Nov-26 00:33N 54°28' E 011°36'1212.0
2016-Nov-25 23:34N 54°33' E 011°18'1211.8
2016-Nov-25 22:34N 54°39' E 010°60'10 9.6
2016-Nov-25 21:33N 54°47' E 010°52'1010.0
2016-Nov-25 20:33N 54°57' E 010°57'1110.3
2016-Nov-25 19:32N 55°07' E 011°02'65 9.3
2016-Nov-25 12:33N 56°12' E 011°17'1010.3
2016-Nov-25 11:33N 56°21' E 011°27'1310.4
2016-Nov-25 10:19N 56°32' E 011°38'1010.1
2016-Nov-25 09:22N 56°40' E 011°47'8 9.7
2016-Nov-25 08:30N 56°48' E 011°49'1310.9
2016-Nov-25 07:19N 57°01' E 011°41'811.0
2016-Nov-25 06:33N 57°08' E 011°36'1111.2
2016-Nov-25 05:33N 57°19' E 011°30'1110.6
2016-Nov-25 04:34N 57°28' E 011°20'1211.9
2016-Nov-25 03:32N 57°37' E 011°04'1111.4
2016-Nov-25 02:33N 57°45' E 010°49'1110.6
2016-Nov-25 01:33N 57°47' E 010°30'11211.2
2016-Nov-24 15:33N 57°42' E 007°01'1010.2
2016-Nov-24 14:33N 57°43' E 006°42'1110.7
2016-Nov-24 13:32N 57°44' E 006°22'1211.4
2016-Nov-24 12:29N 57°48' E 005°60'  
Track history (hours):
 
Tides and Currents Weather Stations Pressure Air Temp Water Temp Dewpoint Dewpoint Depression Visibility Wind Speed Wind Dir Waves Ship Positions

Liberta

Last reported at 2016-Dec-02 08:10 UTC. Time now 2016-Dec-07 08:37 UTC.
Position N 54°48' E 015°48'.

Length 138 m; draft 5.7 m.

Type: Cargo ship. MMSI: 305043000.

Date/timePositionNaut miles runAvg speedWind from/ knotsBaromVisibWave heightAir tempDewpointWater temp
2016-Dec-02 08:10N 54°48' E 015°48'79 7.9
2016-Dec-01 22:15N 53°46' E 014°24'7 9.6
2016-Dec-01 21:33N 53°41' E 014°31'10 9.5
2016-Dec-01 20:33N 53°32' E 014°38'8 7.6
2016-Dec-01 19:33N 53°25' E 014°37'0 0.4
2016-Dec-01 18:30N 53°24' E 014°36'0 0.0
2016-Dec-01 17:33N 53°24' E 014°36'0 0.0
2016-Dec-01 16:33N 53°24' E 014°36'0 0.0
2016-Dec-01 15:33N 53°24' E 014°36'0 0.0
2016-Dec-01 14:33N 53°24' E 014°36'0 0.0
2016-Dec-01 13:33N 53°24' E 014°36'0 0.0
2016-Dec-01 12:33N 53°24' E 014°36'0 0.0
2016-Dec-01 11:33N 53°24' E 014°36'0 0.0
2016-Dec-01 10:33N 53°24' E 014°36'0 0.0
2016-Dec-01 09:33N 53°24' E 014°36'0 0.0
2016-Dec-01 08:33N 53°24' E 014°36'0 0.0
2016-Dec-01 07:33N 53°24' E 014°36'0 0.0
2016-Dec-01 06:33N 53°24' E 014°36'0 0.0
2016-Dec-01 05:33N 53°24' E 014°36'0 0.0
2016-Dec-01 04:33N 53°24' E 014°36'0 0.0
2016-Dec-01 03:33N 53°24' E 014°36'0 0.0
2016-Dec-01 02:33N 53°24' E 014°36'0 0.0
2016-Dec-01 01:30N 53°24' E 014°36'0 0.0
2016-Dec-01 00:33N 53°24' E 014°36'0 0.0
2016-Nov-30 23:33N 53°24' E 014°36'0 0.0
2016-Nov-30 22:30N 53°24' E 014°36'0 0.0
2016-Nov-30 21:33N 53°24' E 014°36'0 0.0
2016-Nov-30 20:33N 53°24' E 014°36'0 0.0
2016-Nov-30 19:33N 53°24' E 014°36'0 0.0
2016-Nov-30 18:33N 53°24' E 014°36'0 0.0
2016-Nov-30 17:33N 53°24' E 014°36'0 0.0
2016-Nov-30 16:33N 53°24' E 014°36'0 0.0
2016-Nov-30 15:33N 53°24' E 014°36'0 0.0
2016-Nov-30 14:33N 53°24' E 014°36'0 0.0
2016-Nov-30 13:33N 53°24' E 014°36'0 0.0
2016-Nov-30 12:33N 53°24' E 014°36'0 0.0
2016-Nov-30 11:33N 53°24' E 014°36'0 0.0
2016-Nov-30 10:33N 53°24' E 014°36'0 0.0
2016-Nov-30 09:33N 53°24' E 014°36'0 0.0
2016-Nov-30 08:33N 53°24' E 014°36'0 0.0
2016-Nov-30 07:33N 53°24' E 014°36'0 0.0
2016-Nov-30 06:27N 53°24' E 014°36'0 0.0
2016-Nov-30 05:33N 53°24' E 014°36'0 0.0
2016-Nov-30 04:33N 53°24' E 014°36'0 0.0
2016-Nov-30 03:33N 53°24' E 014°36'0 0.0
2016-Nov-30 02:33N 53°24' E 014°36'0 0.0
2016-Nov-30 01:33N 53°24' E 014°36'0 0.0
2016-Nov-30 00:33N 53°24' E 014°36'0 0.0
2016-Nov-29 23:33N 53°24' E 014°36'0 0.0
2016-Nov-29 22:30N 53°24' E 014°36'0 0.0
2016-Nov-29 21:33N 53°24' E 014°36'0 0.0
2016-Nov-29 20:33N 53°24' E 014°36'0 0.0
2016-Nov-29 19:33N 53°24' E 014°36'0 0.0
2016-Nov-29 18:33N 53°24' E 014°36'0 0.0
2016-Nov-29 17:33N 53°24' E 014°36'0 0.0
2016-Nov-29 16:33N 53°24' E 014°36'0 0.0
2016-Nov-29 15:33N 53°24' E 014°36'0 0.0
2016-Nov-29 14:33N 53°24' E 014°36'0 0.0
2016-Nov-29 13:33N 53°24' E 014°36'0 0.0
2016-Nov-29 12:33N 53°24' E 014°36'0 0.0
2016-Nov-29 11:33N 53°24' E 014°36'0 0.0
2016-Nov-29 10:33N 53°24' E 014°36'0 0.0
2016-Nov-29 09:33N 53°24' E 014°36'0 0.0
2016-Nov-29 08:33N 53°24' E 014°36'0 0.0
2016-Nov-29 07:33N 53°24' E 014°36'0 0.0
2016-Nov-29 06:33N 53°24' E 014°36'0 0.0
2016-Nov-29 05:33N 53°24' E 014°36'0 0.0
2016-Nov-29 04:33N 53°24' E 014°36'0 0.0
2016-Nov-29 03:33N 53°24' E 014°36'0 0.0
2016-Nov-29 02:30N 53°24' E 014°36'0 0.0
2016-Nov-29 01:33N 53°24' E 014°36'0 0.0
2016-Nov-29 00:33N 53°24' E 014°36'0 0.0
2016-Nov-28 23:33N 53°24' E 014°36'0 0.0
2016-Nov-28 22:33N 53°24' E 014°36'0 0.0
2016-Nov-28 21:33N 53°24' E 014°36'0 0.0
2016-Nov-28 20:33N 53°24' E 014°36'0 0.0
2016-Nov-28 19:33N 53°24' E 014°36'0 0.0
2016-Nov-28 18:33N 53°24' E 014°36'0 0.0
2016-Nov-28 17:33N 53°24' E 014°36'0 0.0
2016-Nov-28 16:33N 53°24' E 014°36'0 0.0
2016-Nov-28 15:33N 53°24' E 014°36'0 0.0
2016-Nov-28 14:33N 53°24' E 014°36'0 0.0
2016-Nov-28 13:33N 53°24' E 014°36'0 0.0
2016-Nov-28 12:33N 53°24' E 014°36'0 0.0
2016-Nov-28 11:30N 53°24' E 014°36'0 0.0
2016-Nov-28 10:33N 53°24' E 014°36'0 0.0
2016-Nov-28 09:33N 53°24' E 014°36'0 0.0
2016-Nov-28 08:33N 53°24' E 014°36'0 0.0
2016-Nov-28 07:33N 53°24' E 014°36'0 0.0
2016-Nov-28 06:33N 53°24' E 014°36'0 0.0
2016-Nov-28 05:33N 53°24' E 014°36'0 0.0
2016-Nov-28 04:30N 53°24' E 014°36'0 0.0
2016-Nov-28 03:33N 53°24' E 014°36'0 0.0
2016-Nov-28 02:33N 53°24' E 014°36'0 0.0
2016-Nov-28 01:33N 53°24' E 014°36'0 0.0
2016-Nov-28 00:33N 53°24' E 014°36'0 0.0
2016-Nov-27 23:33N 53°24' E 014°36'0 0.0
2016-Nov-27 22:33N 53°24' E 014°36'0 0.0
2016-Nov-27 21:33N 53°24' E 014°36'0 0.0
2016-Nov-27 20:33N 53°24' E 014°36'0 0.0
2016-Nov-27 19:33N 53°24' E 014°36'0 0.0
2016-Nov-27 18:33N 53°24' E 014°36'0 0.0
2016-Nov-27 17:33N 53°24' E 014°36'0 0.0
2016-Nov-27 16:33N 53°24' E 014°36'0 0.0
2016-Nov-27 15:33N 53°24' E 014°36'0 0.0
2016-Nov-27 14:33N 53°24' E 014°36'0 0.0
2016-Nov-27 13:33N 53°24' E 014°36'0 0.0
2016-Nov-27 12:33N 53°24' E 014°36'0 0.0
2016-Nov-27 11:33N 53°24' E 014°36'0 0.0
2016-Nov-27 10:33N 53°24' E 014°36'0 0.0
2016-Nov-27 09:33N 53°24' E 014°36'0 0.0
2016-Nov-27 08:33N 53°24' E 014°36'0 0.0
2016-Nov-27 07:33N 53°24' E 014°36'0 0.0
2016-Nov-27 06:33N 53°24' E 014°36'0 0.0
2016-Nov-27 05:33N 53°24' E 014°36'0 0.0
2016-Nov-27 04:33N 53°24' E 014°36'0 0.0
2016-Nov-27 03:33N 53°24' E 014°36'0 0.0
2016-Nov-27 02:33N 53°24' E 014°36'0 0.0
2016-Nov-27 01:33N 53°24' E 014°36'0 0.0
2016-Nov-27 00:33N 53°24' E 014°36'0 0.0
2016-Nov-26 23:33N 53°24' E 014°36'0 0.0
2016-Nov-26 22:33N 53°24' E 014°36'0 0.0
2016-Nov-26 21:33N 53°24' E 014°36'0 0.0
2016-Nov-26 20:33N 53°24' E 014°36'0 0.0
2016-Nov-26 19:33N 53°24' E 014°36'0 0.0
2016-Nov-26 18:33N 53°24' E 014°36'0 0.0
2016-Nov-26 17:33N 53°24' E 014°36'5 4.5
2016-Nov-26 16:33N 53°29' E 014°37'7 7.2
2016-Nov-26 15:32N 53°36' E 014°35'9 8.8
2016-Nov-26 14:33N 53°43' E 014°27'75 9.1
2016-Nov-26 06:20N 54°45' E 013°15'1011.8
2016-Nov-26 05:30N 54°44' E 012°58'1111.4
2016-Nov-26 04:34N 54°43' E 012°40'1111.5
2016-Nov-26 03:34N 54°37' E 012°23'1111.2
2016-Nov-26 02:34N 54°27' E 012°14'1111.0
2016-Nov-26 01:34N 54°25' E 011°55'1111.4
2016-Nov-26 00:33N 54°28' E 011°36'1212.0
2016-Nov-25 23:34N 54°33' E 011°18'1211.8
2016-Nov-25 22:34N 54°39' E 010°60'10 9.6
2016-Nov-25 21:33N 54°47' E 010°52'1010.0
2016-Nov-25 20:33N 54°57' E 010°57'1110.3
2016-Nov-25 19:32N 55°07' E 011°02'65 9.3
2016-Nov-25 12:33N 56°12' E 011°17'1010.3
2016-Nov-25 11:33N 56°21' E 011°27'1310.4
2016-Nov-25 10:19N 56°32' E 011°38'1010.1
2016-Nov-25 09:22N 56°40' E 011°47'8 9.7
2016-Nov-25 08:30N 56°48' E 011°49'1310.9
2016-Nov-25 07:19N 57°01' E 011°41'811.0
2016-Nov-25 06:33N 57°08' E 011°36'1111.2
2016-Nov-25 05:33N 57°19' E 011°30'1110.6
2016-Nov-25 04:34N 57°28' E 011°20'1211.9
2016-Nov-25 03:32N 57°37' E 011°04'1111.4
2016-Nov-25 02:33N 57°45' E 010°49'1110.6
2016-Nov-25 01:33N 57°47' E 010°30'11211.2
2016-Nov-24 15:33N 57°42' E 007°01'1010.2
2016-Nov-24 14:33N 57°43' E 006°42'1110.7
2016-Nov-24 13:32N 57°44' E 006°22'1211.4
2016-Nov-24 12:29N 57°48' E 005°60'  

Dump ship's entire track history